Time;durP1;ratioP1;P1;durP2;ratioP2;P2;SDS_P1;SDS_P2;PMS_P1;PMS_P2;Temp;Humidity;BMP_temperature;BMP_pressure;BME280_temperature;BME280_humidity;BME280_pressure;Samples;Min_cycle;Max_cycle;Signal;HPM_P1;HPM_P2
2021/05/29 00:00:56;;;;;;;4.90;1.20;;;17.50;94.10;;;;;;4789748;29;20035;-87
2021/05/29 00:03:25;;;;;;;2.55;1.50;;;17.50;94.10;;;;;;4793289;29;20292;-87
2021/05/29 00:05:51;;;;;;;4.82;1.33;;;17.50;94.00;;;;;;4792365;29;20063;-87
2021/05/29 00:08:18;;;;;;;4.43;1.30;;;17.50;94.00;;;;;;4790925;29;20058;-86
2021/05/29 00:10:47;;;;;;;5.75;1.42;;;17.40;94.00;;;;;;4792698;29;20048;-83
2021/05/29 00:13:13;;;;;;;2.90;1.00;;;17.30;94.10;;;;;;4788918;29;20031;-87
2021/05/29 00:15:40;;;;;;;7.10;2.15;;;17.20;94.30;;;;;;4779225;29;20042;-86
2021/05/29 00:18:07;;;;;;;3.13;0.95;;;17.20;94.40;;;;;;4792629;29;20036;-86
2021/05/29 00:20:35;;;;;;;3.83;1.23;;;17.20;94.40;;;;;;4789893;29;20036;-83
2021/05/29 00:23:01;;;;;;;2.60;0.80;;;17.20;94.70;;;;;;4782448;29;20031;-87
2021/05/29 00:25:27;;;;;;;7.85;2.58;;;17.20;94.60;;;;;;4783197;29;20106;-85
2021/05/29 00:27:53;;;;;;;2.72;1.13;;;17.20;94.60;;;;;;4788162;29;20038;-85
2021/05/29 00:30:19;;;;;;;3.67;1.48;;;17.20;94.70;;;;;;4773943;30;20544;-86
2021/05/29 00:32:45;;;;;;;4.57;1.13;;;17.20;94.90;;;;;;4783640;29;20040;-86
2021/05/29 00:35:12;;;;;;;4.70;1.15;;;17.20;95.20;;;;;;4783352;30;20119;-86
2021/05/29 00:37:38;;;;;;;6.70;1.30;;;17.10;95.30;;;;;;4768609;30;20035;-86
2021/05/29 00:40:07;;;;;;;3.58;1.02;;;17.00;95.50;;;;;;4771797;29;20028;-86
2021/05/29 00:42:33;;;;;;;2.40;1.20;;;17.00;95.40;;;;;;4787074;29;20562;-83
2021/05/29 00:45:00;;;;;;;2.05;0.90;;;17.00;95.10;;;;;;4772669;29;20089;-83
2021/05/29 00:47:27;;;;;;;2.20;1.17;;;16.80;95.10;;;;;;4786960;30;20038;-83
2021/05/29 00:49:57;;;;;;;3.40;1.17;;;16.70;95.30;;;;;;4786909;29;20093;-84
2021/05/29 00:52:23;;;;;;;3.67;1.42;;;16.40;95.80;;;;;;4771926;30;20039;-83
2021/05/29 00:54:51;;;;;;;3.70;0.93;;;16.20;95.90;;;;;;4786717;29;20046;-83
2021/05/29 00:57:17;;;;;;;4.00;1.40;;;16.20;96.20;;;;;;4784568;29;20032;-83
2021/05/29 00:59:44;;;;;;;3.25;1.60;;;16.40;96.30;;;;;;4757258;30;20028;-83
2021/05/29 01:02:15;;;;;;;4.13;1.83;;;16.40;96.30;;;;;;4771637;30;20039;-83
2021/05/29 01:04:43;;;;;;;5.43;2.00;;;16.40;96.00;;;;;;4786321;29;20138;-83
2021/05/29 01:07:11;;;;;;;6.78;2.10;;;16.40;96.00;;;;;;4786443;30;20070;-82
2021/05/29 01:09:39;;;;;;;2.88;1.10;;;16.40;96.10;;;;;;4772895;30;20028;-84
2021/05/29 01:12:06;;;;;;;3.25;1.40;;;16.60;95.90;;;;;;4772527;30;20093;-83
2021/05/29 01:14:34;;;;;;;3.60;1.38;;;16.50;95.40;;;;;;4785939;29;20036;-83
2021/05/29 01:17:03;;;;;;;3.00;1.63;;;16.50;95.40;;;;;;4786282;30;20502;-83
2021/05/29 01:19:30;;;;;;;5.70;1.55;;;16.40;95.40;;;;;;4786442;29;20035;-82
2021/05/29 01:21:57;;;;;;;4.93;1.90;;;16.20;95.40;;;;;;4785756;29;20039;-83
2021/05/29 01:24:24;;;;;;;4.15;1.45;;;16.00;95.50;;;;;;4770720;30;20077;-84
2021/05/29 01:26:52;;;;;;;3.42;1.20;;;15.90;95.60;;;;;;4772687;30;20032;-83
2021/05/29 01:29:18;;;;;;;2.28;1.60;;;15.70;95.80;;;;;;4772491;30;20122;-81
2021/05/29 01:31:48;;;;;;;8.18;1.63;;;15.60;96.10;;;;;;4771792;30;20039;-83
2021/05/29 01:34:15;;;;;;;5.53;2.28;;;15.50;96.20;;;;;;4784268;29;20043;-83
2021/05/29 01:36:42;;;;;;;4.40;1.83;;;15.50;96.30;;;;;;4762835;30;20056;-83
2021/05/29 01:39:10;;;;;;;3.30;1.20;;;15.40;96.50;;;;;;4781467;30;20056;-83
2021/05/29 01:41:36;;;;;;;3.58;1.67;;;15.30;96.60;;;;;;4785809;29;20024;-83
2021/05/29 01:44:06;;;;;;;3.30;1.75;;;15.20;96.80;;;;;;4771123;30;20038;-83
2021/05/29 01:46:32;;;;;;;1.67;1.02;;;15.20;96.90;;;;;;4785688;29;20127;-83
2021/05/29 01:48:58;;;;;;;3.95;1.17;;;15.10;97.20;;;;;;4785825;29;20111;-82
2021/05/29 01:51:24;;;;;;;10.48;1.65;;;15.10;97.30;;;;;;4771002;30;20091;-83
2021/05/29 01:53:52;;;;;;;4.75;1.52;;;15.10;97.50;;;;;;4756004;30;20032;-83
2021/05/29 01:56:18;;;;;;;3.90;1.90;;;15.20;97.70;;;;;;4767542;30;20494;-83
2021/05/29 01:58:45;;;;;;;3.15;1.10;;;15.30;97.50;;;;;;4778947;30;20155;-83
2021/05/29 02:01:13;;;;;;;3.03;1.55;;;15.40;97.40;;;;;;4770349;30;20031;-83
2021/05/29 02:03:40;;;;;;;5.07;1.63;;;15.50;97.30;;;;;;4771679;30;20038;-83
2021/05/29 02:06:06;;;;;;;1.60;0.82;;;15.60;97.10;;;;;;4785413;29;20046;-83
2021/05/29 02:08:33;;;;;;;4.97;1.70;;;15.70;97.10;;;;;;4785541;30;20071;-83
2021/05/29 02:11:01;;;;;;;4.63;1.42;;;15.70;97.10;;;;;;4785600;30;20047;-83
2021/05/29 02:13:39;;;;;;;2.60;1.42;;;15.60;97.00;;;;;;4771456;30;20044;-83
2021/05/29 02:16:08;;;;;;;2.80;1.27;;;15.70;97.10;;;;;;4785215;30;20128;-83
2021/05/29 02:18:35;;;;;;;3.45;1.38;;;15.60;97.10;;;;;;4771619;30;20036;-83
2021/05/29 02:21:07;;;;;;;3.40;1.63;;;15.60;97.20;;;;;;4785324;30;20036;-83
2021/05/29 02:23:52;;;;;;;2.03;1.23;;;15.50;97.40;;;;;;4785076;30;20028;-83
2021/05/29 02:26:20;;;;;;;4.45;1.30;;;15.60;97.60;;;;;;4773400;30;20040;-83
2021/05/29 02:28:54;;;;;;;2.50;1.20;;;15.70;97.50;;;;;;4770192;30;20039;-82
2021/05/29 02:31:21;;;;;;;9.43;1.40;;;15.90;97.00;;;;;;4771247;30;20378;-83
2021/05/29 02:33:47;;;;;;;5.07;1.77;;;15.90;96.00;;;;;;4769932;30;20507;-82
2021/05/29 02:36:13;;;;;;;3.35;1.23;;;15.60;95.80;;;;;;4784965;29;20055;-83
2021/05/29 02:38:40;;;;;;;4.85;2.08;;;15.40;96.20;;;;;;4784810;29;20031;-83
2021/05/29 02:41:09;;;;;;;5.47;1.25;;;15.40;96.40;;;;;;4785106;29;20485;-83
2021/05/29 02:43:37;;;;;;;6.95;2.70;;;15.40;96.50;;;;;;4784854;30;20106;-83
2021/05/29 02:46:03;;;;;;;4.20;1.02;;;15.40;96.50;;;;;;4784711;29;20402;-83
2021/05/29 02:48:29;;;;;;;3.00;1.30;;;15.30;96.50;;;;;;4784660;30;20042;-82
2021/05/29 02:50:55;;;;;;;3.00;1.17;;;15.40;96.70;;;;;;4784726;29;20071;-82
2021/05/29 02:53:20;;;;;;;2.38;0.82;;;15.40;96.60;;;;;;4784403;29;20459;-83
2021/05/29 02:55:46;;;;;;;3.70;1.95;;;15.40;97.00;;;;;;4770865;30;20118;-83
2021/05/29 02:58:13;;;;;;;1.63;1.20;;;15.40;97.50;;;;;;4770880;30;20050;-83
2021/05/29 03:00:42;;;;;;;1.00;0.77;;;15.40;97.50;;;;;;4784570;30;20397;-84
2021/05/29 03:03:08;;;;;;;3.25;0.73;;;15.40;97.60;;;;;;4784227;29;20112;-83
2021/05/29 03:05:35;;;;;;;4.35;0.98;;;15.40;97.80;;;;;;4784299;29;20036;-83
2021/05/29 03:08:01;;;;;;;4.35;1.33;;;15.40;97.90;;;;;;4784389;29;20379;-82
2021/05/29 03:10:27;;;;;;;2.65;1.05;;;15.40;98.10;;;;;;4769556;30;20032;-83
2021/05/29 03:12:54;;;;;;;2.45;0.80;;;15.50;98.60;;;;;;4784182;29;20044;-82
2021/05/29 03:15:23;;;;;;;5.75;1.08;;;15.60;98.90;;;;;;4781303;29;20123;-83
2021/05/29 03:17:49;;;;;;;5.43;1.90;;;15.70;99.10;;;;;;4752808;30;20115;-83
2021/05/29 03:20:18;;;;;;;4.90;1.38;;;15.80;99.20;;;;;;4752764;30;20035;-83
2021/05/29 03:22:44;;;;;;;3.28;0.90;;;15.90;99.10;;;;;;4781433;29;20036;-83
2021/05/29 03:25:12;;;;;;;2.83;1.15;;;15.90;99.00;;;;;;4779460;30;20054;-83
2021/05/29 03:27:38;;;;;;;6.43;1.88;;;16.00;99.00;;;;;;4770566;30;20027;-84
2021/05/29 03:30:10;;;;;;;3.50;1.27;;;16.00;99.00;;;;;;4770455;30;20035;-83
2021/05/29 03:32:36;;;;;;;5.25;1.55;;;16.10;99.20;;;;;;4785270;29;20040;-84
2021/05/29 03:35:03;;;;;;;4.05;1.40;;;16.10;98.70;;;;;;4783325;29;20051;-83
2021/05/29 03:37:29;;;;;;;3.17;1.17;;;16.00;98.40;;;;;;4783992;29;20056;-83
2021/05/29 03:39:55;;;;;;;3.50;0.80;;;16.00;98.50;;;;;;4755834;30;20036;-83
2021/05/29 03:42:21;;;;;;;0.85;0.70;;;16.00;98.30;;;;;;4765926;30;20040;-83
2021/05/29 03:44:47;;;;;;;4.22;0.93;;;15.90;98.30;;;;;;4772026;29;20429;-83
2021/05/29 03:47:13;;;;;;;2.25;0.90;;;15.90;98.50;;;;;;4768804;30;20058;-83
2021/05/29 03:49:39;;;;;;;1.63;0.77;;;16.00;98.50;;;;;;4783950;29;20035;-83
2021/05/29 03:52:07;;;;;;;7.85;1.15;;;16.10;98.20;;;;;;4769424;30;20161;-83
2021/05/29 03:54:33;;;;;;;2.47;1.10;;;16.10;97.30;;;;;;4783463;29;20492;-83
2021/05/29 03:56:59;;;;;;;4.60;1.10;;;16.10;97.00;;;;;;4783513;30;20136;-83
2021/05/29 03:59:25;;;;;;;1.50;0.93;;;16.00;96.40;;;;;;4767692;30;20070;-82
2021/05/29 04:01:51;;;;;;;6.80;0.95;;;15.80;96.70;;;;;;4772632;30;20393;-84
2021/05/29 04:04:18;;;;;;;2.05;1.00;;;15.70;97.00;;;;;;4783334;29;20039;-84
2021/05/29 04:06:44;;;;;;;2.50;0.70;;;15.60;97.30;;;;;;4767580;30;20402;-84
2021/05/29 04:09:12;;;;;;;3.15;0.82;;;15.50;97.40;;;;;;4783260;29;20032;-82
2021/05/29 04:11:38;;;;;;;1.95;1.02;;;15.50;97.60;;;;;;4768230;30;20044;-81
2021/05/29 04:14:05;;;;;;;3.50;0.90;;;15.50;97.50;;;;;;4782701;29;20051;-81
2021/05/29 04:16:32;;;;;;;4.38;1.25;;;15.60;97.10;;;;;;4782528;29;20031;-81
2021/05/29 04:18:58;;;;;;;2.90;1.33;;;15.60;96.90;;;;;;4769230;30;20115;-81
2021/05/29 04:21:24;;;;;;;3.05;1.50;;;15.70;96.70;;;;;;4768551;30;20470;-81
2021/05/29 04:23:50;;;;;;;2.35;0.90;;;15.60;96.80;;;;;;4783231;29;20036;-81
2021/05/29 04:26:17;;;;;;;1.40;0.90;;;15.50;96.90;;;;;;4782571;29;20039;-81
2021/05/29 04:28:43;;;;;;;1.63;0.80;;;15.50;96.90;;;;;;4768175;30;20040;-81
2021/05/29 04:31:09;;;;;;;2.05;1.08;;;15.60;96.90;;;;;;4782895;29;20096;-81
2021/05/29 04:33:35;;;;;;;9.55;1.30;;;15.60;96.90;;;;;;4769339;30;20036;-84
2021/05/29 04:36:01;;;;;;;1.17;0.75;;;15.60;96.90;;;;;;4753741;30;20091;-83
2021/05/29 04:38:27;;;;;;;2.20;1.20;;;15.70;97.00;;;;;;4783302;30;20047;-83
2021/05/29 04:40:53;;;;;;;1.73;0.73;;;15.80;97.30;;;;;;4783134;29;20036;-83
2021/05/29 04:43:20;;;;;;;3.60;0.98;;;15.90;97.50;;;;;;4768060;30;20035;-83
2021/05/29 04:45:48;;;;;;;4.55;1.55;;;16.00;97.60;;;;;;4768053;30;20111;-83
2021/05/29 04:48:15;;;;;;;4.60;1.00;;;16.20;97.90;;;;;;4768599;30;20145;-83
2021/05/29 04:53:25;;;;;;;3.95;1.23;;;16.40;97.70;;;;;;4769264;30;20031;-83
2021/05/29 04:55:53;;;;;;;3.50;1.73;;;16.60;97.60;;;;;;4769073;30;20031;-82
2021/05/29 04:58:22;;;;;;;5.05;2.10;;;16.70;97.50;;;;;;4768635;30;20518;-83
2021/05/29 05:00:47;;;;;;;8.35;2.25;;;16.80;97.40;;;;;;4768187;30;20032;-83
2021/05/29 05:03:13;;;;;;;3.25;1.98;;;16.90;97.40;;;;;;4783555;29;20039;-83
2021/05/29 05:05:39;;;;;;;3.63;1.43;;;17.00;97.10;;;;;;4768318;30;20439;-83
2021/05/29 05:08:06;;;;;;;11.57;2.70;;;17.10;97.10;;;;;;4768874;30;20316;-83
2021/05/29 05:10:35;;;;;;;15.73;9.48;;;17.20;96.90;;;;;;4768155;30;20332;-83
2021/05/29 05:13:01;;;;;;;4.53;2.55;;;17.30;96.70;;;;;;4768073;30;20060;-83
2021/05/29 05:15:27;;;;;;;2.83;1.13;;;17.40;96.40;;;;;;4768198;30;20132;-83
2021/05/29 05:17:54;;;;;;;1.73;1.00;;;17.50;96.30;;;;;;4782580;29;20477;-83
2021/05/29 05:20:19;;;;;;;2.40;1.38;;;17.60;96.10;;;;;;4765350;30;20040;-83
2021/05/29 05:22:46;;;;;;;5.47;1.75;;;17.60;95.80;;;;;;4765239;30;20051;-83
2021/05/29 05:25:13;;;;;;;3.30;1.88;;;17.70;95.70;;;;;;4765342;30;20047;-83
2021/05/29 05:27:41;;;;;;;42.75;23.60;;;17.70;95.60;;;;;;4769785;30;20040;-83
2021/05/29 05:30:09;;;;;;;10.02;3.15;;;17.80;95.70;;;;;;4785800;29;20040;-83
2021/05/29 05:32:37;;;;;;;13.82;5.95;;;17.80;95.20;;;;;;4786176;29;20043;-83
2021/05/29 05:35:08;;;;;;;3.30;1.85;;;18.00;95.30;;;;;;4786093;30;20066;-83
2021/05/29 05:37:34;;;;;;;2.00;1.30;;;18.10;95.30;;;;;;4785975;29;20040;-83
2021/05/29 05:40:01;;;;;;;4.75;1.08;;;18.10;95.20;;;;;;4780174;30;20394;-83
2021/05/29 05:42:27;;;;;;;4.45;1.92;;;18.20;94.50;;;;;;4786232;29;20097;-83
2021/05/29 05:44:53;;;;;;;3.63;1.33;;;18.20;94.70;;;;;;4786009;29;20027;-84
2021/05/29 05:47:19;;;;;;;4.18;1.02;;;18.30;94.20;;;;;;4785787;29;20044;-84
2021/05/29 05:49:45;;;;;;;3.65;1.10;;;18.30;94.70;;;;;;4785364;29;20046;-83
2021/05/29 05:52:11;;;;;;;9.23;5.13;;;18.30;95.20;;;;;;4783384;29;20047;-80
2021/05/29 05:54:37;;;;;;;10.43;5.13;;;18.40;94.60;;;;;;4785790;29;20080;-84
2021/05/29 05:57:03;;;;;;;4.15;1.65;;;18.50;94.40;;;;;;4785601;29;20301;-81
2021/05/29 05:59:29;;;;;;;7.82;1.50;;;18.50;94.00;;;;;;4786016;29;20508;-85
2021/05/29 06:01:55;;;;;;;5.45;2.72;;;18.50;94.30;;;;;;4792582;29;20040;-84
2021/05/29 06:04:21;;;;;;;4.20;2.35;;;18.50;94.20;;;;;;4779892;30;20043;-84
2021/05/29 06:06:47;;;;;;;6.45;2.05;;;18.60;93.90;;;;;;4795347;29;20134;-85
2021/05/29 06:09:14;;;;;;;4.80;1.42;;;18.60;93.90;;;;;;4792627;29;20032;-86
2021/05/29 06:11:40;;;;;;;2.38;1.17;;;18.70;93.70;;;;;;4793275;29;20047;-83
2021/05/29 06:21:47;;;;;;;4.07;1.60;;;18.90;93.40;;;;;;4779754;30;20389;-85
2021/05/29 06:24:16;;;;;;;3.60;1.45;;;18.90;93.10;;;;;;4792253;29;20277;-84
2021/05/29 06:26:42;;;;;;;5.47;1.70;;;19.00;93.20;;;;;;4788621;29;20091;-83
2021/05/29 06:29:09;;;;;;;7.55;1.83;;;19.00;92.70;;;;;;4795378;29;20028;-82
2021/05/29 06:31:35;;;;;;;4.55;1.40;;;19.20;92.70;;;;;;4770750;29;20130;-80
2021/05/29 06:34:01;;;;;;;3.33;1.73;;;19.20;92.50;;;;;;4774037;30;20032;-90
2021/05/29 06:36:28;;;;;;;4.93;2.00;;;19.30;92.50;;;;;;4772083;30;20051;-84
2021/05/29 06:38:54;;;;;;;4.03;1.75;;;19.30;92.20;;;;;;4771650;30;20031;-85
2021/05/29 06:41:20;;;;;;;6.18;1.83;;;19.30;92.10;;;;;;4786134;30;20105;-84
2021/05/29 06:43:46;;;;;;;2.30;1.27;;;19.40;92.20;;;;;;4785493;29;20493;-84
2021/05/29 06:46:12;;;;;;;4.45;1.83;;;19.60;91.70;;;;;;4771512;30;20038;-84
2021/05/29 06:48:38;;;;;;;3.83;1.48;;;19.50;91.90;;;;;;4785604;30;20382;-83
2021/05/29 06:51:04;;;;;;;2.65;1.67;;;19.60;91.90;;;;;;4784951;29;20050;-83
2021/05/29 06:58:54;;;;;;;2.45;1.40;;;19.80;91.30;;;;;;4769268;30;20044;-84
2021/05/29 07:01:23;;;;;;;3.53;2.20;;;19.90;91.20;;;;;;4769631;30;20494;-83
2021/05/29 07:03:50;;;;;;;4.90;1.92;;;19.90;91.30;;;;;;4770947;30;20035;-83
2021/05/29 07:06:17;;;;;;;2.33;1.38;;;20.00;91.00;;;;;;4770977;30;20072;-83
2021/05/29 07:08:43;;;;;;;2.53;1.70;;;20.10;90.60;;;;;;4785031;29;20138;-84
2021/05/29 07:11:10;;;;;;;3.90;1.70;;;20.20;90.40;;;;;;4784195;29;20058;-83
2021/05/29 07:13:36;;;;;;;5.88;2.45;;;20.20;90.60;;;;;;4770891;30;20059;-83
2021/05/29 07:16:02;;;;;;;5.22;1.73;;;20.30;90.40;;;;;;4770814;30;20489;-84
2021/05/29 07:18:34;;;;;;;2.58;1.25;;;20.40;90.30;;;;;;4770870;30;20028;-84
2021/05/29 07:21:00;;;;;;;3.75;1.95;;;20.50;90.10;;;;;;4786750;30;20876;-84
2021/05/29 07:23:27;;;;;;;3.85;1.70;;;20.50;90.20;;;;;;4771019;30;20031;-84
2021/05/29 07:25:53;;;;;;;4.68;2.38;;;20.60;90.20;;;;;;4771076;30;20074;-84
2021/05/29 07:28:20;;;;;;;2.55;1.50;;;20.70;89.80;;;;;;4770901;30;20541;-84
2021/05/29 07:30:48;;;;;;;2.95;1.50;;;20.70;89.60;;;;;;4784266;29;20052;-84
2021/05/29 07:33:14;;;;;;;3.58;1.30;;;20.70;88.70;;;;;;4770557;30;20625;-84
2021/05/29 07:35:41;;;;;;;3.67;1.77;;;20.80;88.50;;;;;;4770584;30;20126;-84
2021/05/29 07:38:07;;;;;;;3.05;1.40;;;20.90;88.60;;;;;;4770640;30;20181;-85
2021/05/29 07:40:34;;;;;;;3.72;1.50;;;20.90;88.00;;;;;;4784351;29;20042;-84
2021/05/29 07:43:00;;;;;;;1.70;1.27;;;21.00;87.50;;;;;;4783863;29;20379;-84
2021/05/29 07:45:28;;;;;;;5.93;1.65;;;21.10;87.90;;;;;;4784325;29;20047;-84
2021/05/29 07:47:55;;;;;;;6.95;2.00;;;21.20;88.00;;;;;;4770019;30;20031;-84
2021/05/29 07:50:21;;;;;;;8.35;2.90;;;21.40;86.90;;;;;;4770312;30;20034;-84
2021/05/29 07:52:47;;;;;;;2.33;1.20;;;21.40;86.80;;;;;;4784021;30;20036;-84
2021/05/29 07:55:13;;;;;;;6.35;1.70;;;21.50;86.50;;;;;;4770348;30;20316;-84
2021/05/29 07:57:39;;;;;;;6.30;2.03;;;21.60;85.30;;;;;;4784091;30;20039;-85
2021/05/29 08:00:13;;;;;;;5.60;1.80;;;21.70;86.80;;;;;;4770564;30;20089;-84
2021/05/29 08:02:41;;;;;;;3.05;1.60;;;21.70;87.10;;;;;;4769307;30;20035;-84
2021/05/29 08:05:16;;;;;;;4.80;1.50;;;21.80;86.00;;;;;;4770368;30;20038;-84
2021/05/29 08:07:42;;;;;;;2.75;1.30;;;22.00;84.50;;;;;;4770322;30;20039;-84
2021/05/29 08:10:09;;;;;;;3.65;1.40;;;22.00;83.90;;;;;;4769972;30;20482;-84
2021/05/29 08:12:36;;;;;;;4.68;1.27;;;22.10;84.40;;;;;;4770147;30;20540;-84
2021/05/29 08:15:02;;;;;;;2.50;1.40;;;22.20;85.10;;;;;;4784520;29;20104;-83
2021/05/29 08:17:28;;;;;;;3.75;1.80;;;22.30;85.30;;;;;;4770468;30;20512;-85
2021/05/29 08:19:54;;;;;;;2.00;1.37;;;22.30;85.40;;;;;;4769017;30;20067;-84
2021/05/29 08:22:20;;;;;;;2.25;1.42;;;22.40;85.10;;;;;;4770403;30;20035;-85
2021/05/29 08:24:46;;;;;;;3.28;1.83;;;22.50;84.50;;;;;;4770496;30;20529;-84
2021/05/29 08:27:12;;;;;;;3.50;1.55;;;22.60;85.90;;;;;;4770727;30;20028;-84
2021/05/29 08:29:38;;;;;;;2.87;1.30;;;22.70;87.40;;;;;;4785851;30;20123;-84
2021/05/29 08:32:04;;;;;;;6.38;1.58;;;22.70;86.30;;;;;;4773190;30;20062;-84
2021/05/29 08:34:30;;;;;;;13.50;2.08;;;22.80;85.30;;;;;;4771724;30;20028;-85
2021/05/29 08:36:56;;;;;;;3.47;1.02;;;23.00;83.10;;;;;;4785593;29;20154;-86
2021/05/29 08:39:21;;;;;;;4.13;1.70;;;23.20;83.60;;;;;;4771461;30;20035;-85
2021/05/29 08:41:48;;;;;;;3.30;1.10;;;23.20;84.20;;;;;;4784113;30;20273;-85
2021/05/29 08:44:14;;;;;;;2.03;1.30;;;23.10;79.20;;;;;;4771919;30;20067;-87
2021/05/29 08:46:40;;;;;;;2.50;1.23;;;23.20;77.40;;;;;;4771619;30;20035;-86
2021/05/29 08:49:06;;;;;;;1.70;0.95;;;23.30;80.70;;;;;;4772621;30;20071;-87
2021/05/29 08:51:33;;;;;;;1.33;1.23;;;23.30;79.00;;;;;;4774341;30;20059;-86
2021/05/29 08:54:00;;;;;;;3.92;1.35;;;23.40;79.90;;;;;;4772534;30;20068;-86
2021/05/29 08:56:28;;;;;;;1.80;1.33;;;23.40;78.60;;;;;;4787245;29;20082;-86
2021/05/29 08:58:55;;;;;;;5.30;1.52;;;23.30;77.20;;;;;;4787975;29;20478;-85
2021/05/29 09:01:25;;;;;;;1.50;0.80;;;23.40;79.00;;;;;;4777990;30;20036;-87
2021/05/29 09:03:58;;;;;;;0.88;0.60;;;23.40;77.10;;;;;;4777757;30;20047;-87
2021/05/29 09:06:27;;;;;;;;;;;23.40;73.50;;;;;;4791067;29;20438;-86
2021/05/29 09:09:01;;;;;;;2.05;0.90;;;23.50;71.20;;;;;;4773834;30;20371;-85
2021/05/29 09:12:03;;;;;;;3.53;0.95;;;23.60;77.00;;;;;;4773400;30;20189;-81
2021/05/29 09:14:35;;;;;;;1.83;1.40;;;23.70;72.80;;;;;;4787882;30;20027;-82
2021/05/29 09:17:13;;;;;;;2.97;0.80;;;23.80;73.00;;;;;;4773369;30;20075;-84
2021/05/29 09:19:56;;;;;;;0.98;0.77;;;23.90;71.10;;;;;;4774237;30;20081;-85
2021/05/29 09:22:28;;;;;;;2.88;0.77;;;24.00;73.50;;;;;;4773038;30;20035;-83
2021/05/29 09:25:17;;;;;;;1.23;0.65;;;24.10;72.70;;;;;;4771475;30;20039;-83
2021/05/29 09:27:59;;;;;;;1.35;0.50;;;24.20;70.10;;;;;;4772185;30;20036;-83
2021/05/29 09:30:39;;;;;;;3.80;0.85;;;24.20;68.70;;;;;;4786391;29;20036;-84
2021/05/29 09:33:14;;;;;;;1.00;0.80;;;24.20;72.10;;;;;;4786744;29;20035;-84
2021/05/29 09:35:40;;;;;;;3.00;0.98;;;24.20;70.10;;;;;;4772780;30;20129;-84
2021/05/29 09:38:06;;;;;;;1.58;1.10;;;24.30;70.00;;;;;;4786244;29;20043;-84
2021/05/29 09:40:33;;;;;;;1.65;1.13;;;24.40;69.40;;;;;;4777925;30;20040;-84
2021/05/29 09:43:05;;;;;;;3.85;0.85;;;24.50;69.20;;;;;;4788465;29;20074;-84
2021/05/29 09:45:31;;;;;;;;;;;24.70;72.40;;;;;;4773675;30;20047;-84
2021/05/29 09:48:18;;;;;;;1.23;0.60;;;24.80;71.00;;;;;;4773358;30;19917;-85
2021/05/29 09:50:57;;;;;;;2.97;0.82;;;24.90;69.30;;;;;;4772964;30;20289;-81
2021/05/29 09:53:29;;;;;;;1.60;0.63;;;25.00;72.20;;;;;;4772776;30;20042;-83
2021/05/29 09:55:55;;;;;;;0.90;0.60;;;25.00;70.80;;;;;;4785925;29;20097;-83
2021/05/29 09:58:42;;;;;;;2.38;0.50;;;25.10;66.90;;;;;;4785178;30;20044;-82
2021/05/29 10:01:08;;;;;;;1.60;0.63;;;25.20;66.70;;;;;;4785462;29;20050;-83
2021/05/29 10:03:47;;;;;;;1.20;0.60;;;25.30;68.60;;;;;;4772008;30;20028;-83
2021/05/29 10:06:13;;;;;;;1.92;0.50;;;25.40;67.20;;;;;;4771852;30;20117;-83
2021/05/29 10:08:39;;;;;;;0.40;0.40;;;25.30;66.00;;;;;;4770794;30;20110;-84
2021/05/29 10:11:05;;;;;;;1.20;0.52;;;25.10;66.60;;;;;;4771193;30;20058;-85
2021/05/29 10:13:30;;;;;;;0.63;0.60;;;25.10;67.80;;;;;;4772031;30;20028;-85
2021/05/29 10:15:56;;;;;;;3.67;0.90;;;25.20;69.60;;;;;;4785915;29;20036;-84
2021/05/29 10:18:23;;;;;;;0.80;0.70;;;25.20;71.00;;;;;;4786387;30;20032;-85
2021/05/29 10:20:51;;;;;;;3.50;0.70;;;25.50;70.60;;;;;;4773020;30;20285;-82
2021/05/29 10:23:17;;;;;;;1.05;0.80;;;25.90;68.60;;;;;;4785288;30;20060;-82
2021/05/29 10:25:43;;;;;;;2.35;0.82;;;26.00;66.20;;;;;;4785127;29;20046;-82
2021/05/29 10:28:10;;;;;;;1.35;0.50;;;26.00;66.80;;;;;;4784828;29;20394;-81
2021/05/29 10:30:36;;;;;;;1.00;0.45;;;26.30;66.60;;;;;;4784940;29;20039;-82
2021/05/29 10:33:15;;;;;;;0.45;0.40;;;26.40;63.80;;;;;;4769978;30;20481;-83
2021/05/29 10:35:45;;;;;;;1.13;0.57;;;27.00;65.00;;;;;;4770025;30;20052;-83
2021/05/29 10:38:12;;;;;;;1.00;0.50;;;27.00;64.00;;;;;;4771063;30;20028;-83
2021/05/29 10:40:48;;;;;;;1.40;0.70;;;26.70;64.30;;;;;;4785172;29;20410;-83
2021/05/29 10:43:19;;;;;;;2.13;0.90;;;26.70;66.30;;;;;;4785296;29;20114;-83
2021/05/29 10:45:51;;;;;;;2.05;0.60;;;26.70;66.30;;;;;;4785277;29;20036;-83
2021/05/29 10:48:22;;;;;;;3.53;0.80;;;26.90;65.90;;;;;;4785526;29;20130;-85
2021/05/29 10:53:38;;;;;;;2.42;1.63;;;26.50;63.90;;;;;;4773398;29;20036;-85
2021/05/29 10:56:16;;;;;;;1.25;0.60;;;26.20;62.80;;;;;;4786699;29;20068;-85
2021/05/29 10:59:08;;;;;;;2.05;0.85;;;26.30;63.70;;;;;;4771528;30;20389;-84
2021/05/29 11:01:38;;;;;;;1.23;0.38;;;26.30;63.60;;;;;;4784706;29;20107;-84
2021/05/29 11:04:16;;;;;;;0.57;0.50;;;26.40;62.80;;;;;;4784545;29;20040;-83
2021/05/29 11:06:48;;;;;;;1.65;0.45;;;26.50;62.50;;;;;;4771002;30;20031;-84
2021/05/29 11:09:16;;;;;;;1.67;0.98;;;26.50;62.60;;;;;;4770852;30;20090;-85
2021/05/29 11:11:43;;;;;;;1.55;0.50;;;26.60;63.40;;;;;;4770110;30;20047;-84
2021/05/29 11:14:11;;;;;;;0.90;0.50;;;27.00;63.80;;;;;;4770839;30;20035;-84
2021/05/29 11:16:46;;;;;;;1.08;0.73;;;27.00;60.30;;;;;;4770681;30;20550;-83
2021/05/29 11:19:21;;;;;;;1.75;0.75;;;27.00;62.80;;;;;;4770725;30;20062;-84
2021/05/29 11:22:09;;;;;;;1.35;0.70;;;26.90;62.70;;;;;;4784443;29;20031;-84
2021/05/29 11:24:40;;;;;;;1.08;0.98;;;26.60;61.00;;;;;;4770678;30;20152;-84
2021/05/29 11:27:18;;;;;;;0.98;0.73;;;26.70;66.80;;;;;;4784350;29;20188;-86
2021/05/29 11:30:09;;;;;;;0.98;0.73;;;26.80;61.00;;;;;;4771094;30;20027;-86
2021/05/29 11:33:15;;;;;;;0.70;0.70;;;26.70;62.90;;;;;;4785050;29;20051;-87
2021/05/29 11:35:44;;;;;;;2.15;0.80;;;26.60;58.90;;;;;;4751185;30;20081;-86
2021/05/29 11:38:21;;;;;;;1.42;0.75;;;26.40;58.80;;;;;;4751104;30;20516;-84
2021/05/29 11:41:10;;;;;;;0.98;0.63;;;26.40;60.40;;;;;;4761764;30;20044;-87
2021/05/29 11:43:52;;;;;;;1.60;0.80;;;26.50;60.30;;;;;;4771616;30;20096;-85
2021/05/29 11:46:23;;;;;;;2.28;0.68;;;26.80;63.90;;;;;;4771225;30;20064;-87
2021/05/29 11:49:05;;;;;;;0.65;0.65;;;27.00;57.80;;;;;;4770806;30;20115;-87
2021/05/29 11:51:36;;;;;;;1.40;0.80;;;27.10;59.80;;;;;;4770344;30;20486;-86
2021/05/29 11:54:20;;;;;;;4.57;1.58;;;27.00;58.30;;;;;;4770558;30;20080;-86
2021/05/29 11:56:50;;;;;;;1.65;0.70;;;27.00;62.00;;;;;;4769120;30;20067;-87
2021/05/29 11:59:20;;;;;;;1.45;0.60;;;27.10;59.50;;;;;;4770470;30;20099;-86
2021/05/29 12:01:50;;;;;;;1.52;0.73;;;27.10;59.70;;;;;;4770856;30;20032;-87
2021/05/29 12:04:25;;;;;;;2.50;0.75;;;27.50;59.80;;;;;;4768177;30;20074;-79
2021/05/29 12:07:02;;;;;;;1.45;0.70;;;27.80;62.60;;;;;;4769862;30;20097;-78
2021/05/29 12:09:34;;;;;;;1.98;1.15;;;28.00;61.90;;;;;;4769878;30;20073;-77
2021/05/29 12:12:08;;;;;;;1.65;0.90;;;28.20;63.20;;;;;;4769482;30;20052;-75
2021/05/29 12:14:40;;;;;;;1.35;1.05;;;27.80;63.10;;;;;;4769161;30;20031;-76
2021/05/29 12:17:17;;;;;;;2.55;0.82;;;27.60;60.10;;;;;;4769594;30;20047;-75
2021/05/29 12:19:50;;;;;;;0.80;0.80;;;27.70;63.50;;;;;;4769661;30;20031;-75
2021/05/29 12:22:24;;;;;;;1.50;1.40;;;27.40;64.30;;;;;;4769399;30;20040;-76
2021/05/29 12:24:51;;;;;;;1.50;1.00;;;26.90;64.90;;;;;;4769400;30;20546;-76
2021/05/29 12:27:19;;;;;;;1.40;0.88;;;26.30;65.80;;;;;;4783207;29;20044;-76
2021/05/29 12:29:46;;;;;;;0.73;0.60;;;26.00;60.70;;;;;;4769677;29;20105;-77
2021/05/29 12:32:51;;;;;;;1.55;0.85;;;25.90;59.40;;;;;;4782738;29;20070;-76
2021/05/29 12:35:38;;;;;;;0.90;0.75;;;25.90;66.00;;;;;;4748872;30;20056;-78
2021/05/29 12:38:19;;;;;;;3.83;1.15;;;25.80;67.20;;;;;;4749620;30;20057;-75
2021/05/29 12:41:10;;;;;;;3.03;1.80;;;25.80;66.00;;;;;;4763219;30;20047;-73
2021/05/29 12:43:38;;;;;;;2.00;0.85;;;25.80;67.40;;;;;;4768657;30;20035;-74
2021/05/29 12:46:07;;;;;;;1.75;0.98;;;26.10;66.80;;;;;;4769394;30;20065;-74
2021/05/29 12:48:33;;;;;;;1.75;0.77;;;26.40;60.90;;;;;;4782657;29;20080;-73
2021/05/29 12:50:59;;;;;;;1.60;0.80;;;26.40;60.40;;;;;;4769414;30;20043;-77
2021/05/29 12:53:28;;;;;;;3.20;0.90;;;26.90;62.00;;;;;;4768383;30;20036;-77
2021/05/29 12:56:15;;;;;;;2.05;1.13;;;27.50;64.10;;;;;;4782928;29;20090;-78
2021/05/29 12:59:00;;;;;;;1.50;0.88;;;27.80;60.20;;;;;;4783131;30;20482;-82
2021/05/29 13:07:31;;;;;;;2.22;0.63;;;27.70;60.40;;;;;;4784871;29;20054;-82
2021/05/29 13:12:36;;;;;;;1.35;1.05;;;27.30;59.40;;;;;;4765328;30;20052;-88
2021/05/29 13:15:14;;;;;;;1.50;0.80;;;27.00;60.20;;;;;;4781569;29;20118;-84
2021/05/29 13:17:40;;;;;;;1.05;0.70;;;27.20;60.60;;;;;;4782946;29;20122;-84
2021/05/29 13:20:14;;;;;;;0.60;0.60;;;27.50;63.00;;;;;;4783031;30;20115;-82
2021/05/29 13:22:40;;;;;;;1.90;0.73;;;27.20;55.90;;;;;;4769309;30;20039;-82
2021/05/29 13:25:06;;;;;;;1.38;0.80;;;27.20;58.80;;;;;;4768624;30;20085;-82